createdAt,value
2023-02-11T00:01:33.531Z,18.30
2023-02-11T00:04:01.869Z,31.02
2023-02-11T00:06:30.784Z,22.67
2023-02-11T00:08:58.126Z,37.92
2023-02-11T00:11:30.172Z,20.58
2023-02-11T00:13:59.528Z,20.45
2023-02-11T00:16:27.762Z,23.42
2023-02-11T00:18:55.408Z,20.98
2023-02-11T00:21:26.453Z,18.48
2023-02-11T00:23:54.952Z,21.00
2023-02-11T00:26:25.666Z,29.30
2023-02-11T00:28:53.918Z,19.33
2023-02-11T00:31:23.110Z,18.55
2023-02-11T00:33:50.754Z,17.63
2023-02-11T00:36:24.521Z,19.23
2023-02-11T00:38:53.379Z,19.70
2023-02-11T00:41:21.064Z,19.58
2023-02-11T00:43:48.596Z,20.02
2023-02-11T00:46:16.762Z,18.58
2023-02-11T00:48:44.473Z,18.95
2023-02-11T00:51:12.339Z,21.52
2023-02-11T00:53:39.629Z,19.98
2023-02-11T00:56:08.467Z,20.88
2023-02-11T00:58:36.413Z,17.10
2023-02-11T01:01:04.534Z,23.92
2023-02-11T01:03:31.914Z,16.50
2023-02-11T01:05:59.315Z,18.52
2023-02-11T01:08:26.900Z,21.00
2023-02-11T01:10:56.830Z,21.85
2023-02-11T01:13:25.224Z,17.63
2023-02-11T01:15:56.290Z,19.50
2023-02-11T01:18:24.950Z,15.90
2023-02-11T01:20:53.391Z,23.55
2023-02-11T01:23:20.809Z,17.23
2023-02-11T01:25:48.588Z,22.30
2023-02-11T01:28:25.396Z,21.23
2023-02-11T01:30:53.356Z,20.88
2023-02-11T01:33:21.703Z,21.08
2023-02-11T01:35:50.016Z,25.17
2023-02-11T01:38:20.422Z,27.30
2023-02-11T01:40:50.104Z,25.33
2023-02-11T01:43:18.360Z,27.00
2023-02-11T01:45:48.652Z,29.27
2023-02-11T01:48:25.106Z,27.10
2023-02-11T01:50:59.225Z,34.03
2023-02-11T01:53:45.498Z,17.40
2023-02-11T01:56:31.321Z,23.55
2023-02-11T01:59:07.747Z,21.38
2023-02-11T02:01:38.849Z,19.35
2023-02-11T02:04:08.160Z,15.93
2023-02-11T02:06:46.013Z,18.98
2023-02-11T02:09:24.609Z,21.83
2023-02-11T02:11:52.326Z,21.73
2023-02-11T02:14:20.193Z,19.30
2023-02-11T02:16:47.684Z,21.90
2023-02-11T02:19:44.336Z,28.95
2023-02-11T02:22:20.240Z,25.85
2023-02-11T02:25:08.162Z,20.40
2023-02-11T02:28:00.452Z,26.15
2023-02-11T02:30:33.514Z,27.42
2023-02-11T02:33:22.802Z,26.65
2023-02-11T02:36:03.818Z,31.73
2023-02-11T02:38:39.390Z,25.92
2023-02-11T02:41:09.976Z,26.42
2023-02-11T02:43:41.559Z,22.00
2023-02-11T02:46:18.972Z,25.02
2023-02-11T02:48:47.058Z,26.27
2023-02-11T02:51:51.489Z,28.25
2023-02-11T02:54:30.781Z,28.67
2023-02-11T02:57:17.298Z,25.67
2023-02-11T03:00:08.837Z,23.10
2023-02-11T03:03:03.195Z,23.15
2023-02-11T03:05:49.792Z,26.58
2023-02-11T03:08:45.207Z,27.10
2023-02-11T03:11:17.194Z,27.80
2023-02-11T03:13:46.324Z,24.75
2023-02-11T03:16:18.788Z,27.33
2023-02-11T03:18:52.202Z,27.42
2023-02-11T03:21:20.653Z,24.83
2023-02-11T03:23:56.697Z,33.67
2023-02-11T03:26:34.413Z,24.45
2023-02-11T03:29:18.477Z,32.58
2023-02-11T03:31:56.246Z,32.60
2023-02-11T03:34:47.629Z,34.95
2023-02-11T03:37:22.017Z,30.75
2023-02-11T03:40:05.206Z,31.42
2023-02-11T03:42:38.633Z,31.50
2023-02-11T03:45:10.305Z,27.10
2023-02-11T03:47:41.146Z,30.15
2023-02-11T03:50:10.199Z,30.80
2023-02-11T03:52:38.610Z,29.83
2023-02-11T03:55:19.222Z,28.20
2023-02-11T03:57:47.450Z,27.95
2023-02-11T04:00:15.508Z,31.23
2023-02-11T04:02:43.650Z,29.23
2023-02-11T04:05:14.712Z,36.03
2023-02-11T04:07:42.376Z,33.55
2023-02-11T04:10:11.141Z,30.23
2023-02-11T04:12:38.516Z,30.77
2023-02-11T04:15:06.353Z,36.58
2023-02-11T04:17:33.764Z,27.85
2023-02-11T04:20:01.195Z,28.75
2023-02-11T04:22:28.531Z,33.53
2023-02-11T04:24:55.868Z,33.58
2023-02-11T04:27:23.272Z,31.52
2023-02-11T04:29:50.813Z,29.65
2023-02-11T04:32:18.268Z,23.10
2023-02-11T04:34:45.624Z,27.60
2023-02-11T04:37:12.882Z,25.13
2023-02-11T04:39:40.267Z,28.02
2023-02-11T04:42:07.875Z,25.63
2023-02-11T04:44:35.205Z,29.85
2023-02-11T04:47:02.568Z,28.77
2023-02-11T04:49:29.984Z,28.65
2023-02-11T04:51:57.524Z,24.70
2023-02-11T04:54:24.845Z,30.75
2023-02-11T04:56:52.170Z,24.63
2023-02-11T04:59:19.460Z,33.00
2023-02-11T05:01:46.801Z,32.97
2023-02-11T05:04:14.152Z,24.65
2023-02-11T05:06:41.526Z,24.80
2023-02-11T05:09:11.933Z,24.17
2023-02-11T05:11:39.494Z,27.42
2023-02-11T05:14:07.246Z,25.05
2023-02-11T05:16:34.998Z,25.02
2023-02-11T05:19:02.396Z,26.33
2023-02-11T05:21:29.748Z,30.63
2023-02-11T05:23:57.546Z,30.58
2023-02-11T05:26:25.018Z,24.90
2023-02-11T05:28:52.902Z,30.08
2023-02-11T05:31:20.486Z,21.67
2023-02-11T05:33:47.885Z,23.17
2023-02-11T05:36:16.025Z,14.68
2023-02-11T05:38:43.797Z,17.88
2023-02-11T05:41:11.481Z,22.67
2023-02-11T05:43:38.851Z,18.98
2023-02-11T05:46:06.682Z,17.08
2023-02-11T05:48:34.616Z,19.30
2023-02-11T05:51:02.135Z,21.98
2023-02-11T05:53:29.488Z,22.45
2023-02-11T05:55:57.455Z,19.02
2023-02-11T05:58:24.951Z,20.77
2023-02-11T06:00:52.281Z,21.10
2023-02-11T06:03:20.011Z,23.75
2023-02-11T06:05:47.443Z,15.63
2023-02-11T06:08:14.878Z,26.15
2023-02-11T06:10:45.702Z,17.25
2023-02-11T06:13:13.279Z,15.52
2023-02-11T06:15:40.627Z,20.35
2023-02-11T06:18:08.010Z,16.95
2023-02-11T06:20:35.639Z,17.05
2023-02-11T06:23:03.045Z,22.15
2023-02-11T06:25:30.801Z,24.83
2023-02-11T06:27:58.461Z,23.40
2023-02-11T06:30:25.763Z,18.67
2023-02-11T06:32:54.714Z,16.88
2023-02-11T06:35:21.939Z,24.52
2023-02-11T06:37:49.686Z,20.40
2023-02-11T06:40:17.018Z,19.55
2023-02-11T06:42:44.453Z,19.00
2023-02-11T06:45:13.258Z,15.38
2023-02-11T06:47:41.270Z,19.88
2023-02-11T06:50:11.982Z,19.38
2023-02-11T06:52:39.335Z,21.45
2023-02-11T06:55:07.128Z,17.15
2023-02-11T06:57:34.548Z,28.85
2023-02-11T07:00:02.541Z,19.77
2023-02-11T07:02:29.961Z,14.05
2023-02-11T07:04:57.917Z,17.73
2023-02-11T07:07:25.369Z,19.08
2023-02-11T07:09:52.735Z,17.98
2023-02-11T07:12:20.052Z,17.83
2023-02-11T07:14:47.373Z,16.90
2023-02-11T07:17:15.385Z,23.40
2023-02-11T07:19:42.783Z,20.60
2023-02-11T07:22:10.186Z,26.17
2023-02-11T07:24:37.455Z,26.48
2023-02-11T07:27:04.777Z,21.83
2023-02-11T07:29:33.038Z,20.58
2023-02-11T07:32:00.468Z,20.80
2023-02-11T07:34:28.019Z,21.38
2023-02-11T07:36:55.327Z,16.35
2023-02-11T07:39:22.808Z,16.20
2023-02-11T07:41:50.152Z,21.42
2023-02-11T07:44:18.690Z,15.27
2023-02-11T07:46:47.746Z,21.38
2023-02-11T07:49:15.704Z,21.40
2023-02-11T07:51:43.189Z,15.23
2023-02-11T07:54:11.522Z,21.45
2023-02-11T07:56:38.789Z,23.58
2023-02-11T07:59:06.216Z,15.55
2023-02-11T08:01:33.689Z,14.40
2023-02-11T08:04:02.590Z,15.38
2023-02-11T08:06:33.308Z,11.60
2023-02-11T08:09:09.567Z,16.20
2023-02-11T08:11:37.107Z,13.80
2023-02-11T08:14:04.427Z,12.35
2023-02-11T08:16:34.778Z,19.92
2023-02-11T08:19:05.095Z,20.30
2023-02-11T08:21:32.553Z,24.40
2023-02-11T08:24:02.977Z,15.52
2023-02-11T08:26:34.634Z,18.73
2023-02-11T08:29:07.674Z,7.55
2023-02-11T08:31:37.732Z,13.60
2023-02-11T08:34:05.439Z,16.80
2023-02-11T08:36:36.549Z,10.00
2023-02-11T08:39:19.253Z,15.38
2023-02-11T08:41:53.221Z,12.13
2023-02-11T08:44:21.728Z,11.38
2023-02-11T08:46:50.194Z,11.23
2023-02-11T08:49:18.475Z,12.70
2023-02-11T08:51:46.774Z,11.73
2023-02-11T08:54:14.360Z,8.32
2023-02-11T08:56:42.253Z,6.80
2023-02-11T08:59:12.684Z,8.07
2023-02-11T09:01:40.031Z,11.88
2023-02-11T09:04:07.449Z,17.40
2023-02-11T09:06:34.850Z,12.38
2023-02-11T09:09:02.487Z,11.00
2023-02-11T09:11:35.633Z,8.32
2023-02-11T09:14:04.681Z,10.55
2023-02-11T09:16:35.480Z,17.70
2023-02-11T09:19:04.596Z,10.95
2023-02-11T09:21:32.219Z,11.52
2023-02-11T09:23:59.484Z,10.30
2023-02-11T09:26:30.219Z,18.17
2023-02-11T09:28:58.055Z,6.07
2023-02-11T09:31:27.318Z,10.60
2023-02-11T09:34:01.033Z,9.00
2023-02-11T09:36:31.438Z,7.18
2023-02-11T09:39:00.523Z,11.25
2023-02-11T09:41:49.301Z,7.90
2023-02-11T09:44:20.846Z,10.98
2023-02-11T09:46:58.578Z,15.95
2023-02-11T09:49:39.080Z,9.40
2023-02-11T09:52:32.246Z,12.82
2023-02-11T09:55:11.142Z,10.85
2023-02-11T09:57:38.523Z,8.18
2023-02-11T10:00:36.413Z,12.30
2023-02-11T10:03:25.622Z,13.10
2023-02-11T10:06:19.931Z,6.93
2023-02-11T10:08:53.357Z,6.97
2023-02-11T10:11:31.243Z,12.52
2023-02-11T10:14:18.986Z,7.38
2023-02-11T10:17:24.879Z,6.53
2023-02-11T10:20:05.877Z,5.85
2023-02-11T10:22:49.376Z,11.98
2023-02-11T10:25:37.742Z,4.90
2023-02-11T10:28:17.836Z,8.25
2023-02-11T10:30:57.358Z,12.27
2023-02-11T10:33:40.370Z,9.02
2023-02-11T10:36:10.968Z,5.93
2023-02-11T10:38:38.384Z,12.40
2023-02-11T10:41:06.617Z,9.45
2023-02-11T10:43:35.264Z,9.18
2023-02-11T10:46:04.923Z,6.18
2023-02-11T10:48:36.431Z,6.82
2023-02-11T10:51:19.029Z,5.15
2023-02-11T10:54:14.482Z,9.05
2023-02-11T10:56:50.741Z,10.10
2023-02-11T10:59:30.682Z,6.40
2023-02-11T11:02:01.767Z,10.23
2023-02-11T11:04:44.070Z,8.95
2023-02-11T11:07:25.295Z,12.70
2023-02-11T11:09:59.717Z,12.25
2023-02-11T11:12:45.793Z,16.30
2023-02-11T11:15:28.133Z,10.57
2023-02-11T11:18:21.835Z,13.18
2023-02-11T11:20:56.304Z,15.68
2023-02-11T11:23:24.985Z,10.50
2023-02-11T11:26:10.877Z,6.72
2023-02-11T11:28:56.315Z,11.98
2023-02-11T11:31:49.672Z,7.55
2023-02-11T11:34:26.440Z,11.88
2023-02-11T11:36:55.261Z,8.27
2023-02-11T11:39:29.478Z,5.57
2023-02-11T11:42:02.394Z,11.10
2023-02-11T11:44:36.204Z,10.68
2023-02-11T11:47:13.435Z,9.70
2023-02-11T11:50:15.191Z,5.40
2023-02-11T11:52:48.756Z,6.68
2023-02-11T11:55:25.280Z,15.32
2023-02-11T11:57:54.874Z,7.47
2023-02-11T12:00:41.477Z,7.43
2023-02-11T12:03:38.274Z,17.35
2023-02-11T12:06:24.942Z,9.48
2023-02-11T12:09:01.657Z,16.40
2023-02-11T12:14:42.918Z,13.23
2023-02-11T12:17:42.204Z,8.00
2023-02-11T12:20:29.213Z,11.75
2023-02-11T12:23:34.871Z,6.15
2023-02-11T12:26:21.642Z,11.85
2023-02-11T12:29:27.384Z,12.23
2023-02-11T12:32:18.399Z,8.65
2023-02-11T12:35:22.825Z,10.80
2023-02-11T12:38:06.164Z,6.70
2023-02-11T12:40:48.049Z,7.57
2023-02-11T12:43:37.872Z,12.48
2023-02-11T12:46:31.932Z,5.28
2023-02-11T12:49:17.043Z,8.15
2023-02-11T12:52:25.249Z,7.88
2023-02-11T12:55:10.817Z,12.80
2023-02-11T12:57:41.774Z,16.85
2023-02-11T13:00:25.268Z,11.07
2023-02-11T13:03:12.812Z,6.10
2023-02-11T13:05:49.556Z,14.68
2023-02-11T13:08:16.932Z,7.88
2023-02-11T13:10:50.452Z,17.42
2023-02-11T13:13:24.281Z,13.48
2023-02-11T13:16:32.759Z,12.63
2023-02-11T13:19:25.107Z,13.02
2023-02-11T13:22:40.252Z,10.73
2023-02-11T13:25:29.507Z,8.27
2023-02-11T13:28:18.732Z,6.57
2023-02-11T13:30:52.014Z,6.72
2023-02-11T13:33:32.702Z,7.95
2023-02-11T13:36:00.766Z,9.10
2023-02-11T13:38:31.679Z,16.20
2023-02-11T13:41:21.326Z,12.43
2023-02-11T13:43:58.969Z,10.52
2023-02-11T13:46:29.173Z,6.90
2023-02-11T13:48:58.166Z,9.88
2023-02-11T13:51:41.195Z,19.65
2023-02-11T13:54:19.607Z,11.43
2023-02-11T13:57:22.196Z,16.55
2023-02-11T13:59:55.788Z,15.57
2023-02-11T14:02:41.384Z,11.70
2023-02-11T14:05:27.166Z,12.77
2023-02-11T14:08:35.780Z,8.13
2023-02-11T14:11:33.321Z,6.13
2023-02-11T14:14:24.280Z,5.68
2023-02-11T14:17:19.184Z,7.00
2023-02-11T14:19:49.491Z,9.82
2023-02-11T14:22:23.779Z,7.47
2023-02-11T14:24:55.778Z,7.97
2023-02-11T14:27:43.731Z,5.40
2023-02-11T14:30:35.071Z,14.65
2023-02-11T14:33:23.140Z,11.38
2023-02-11T14:35:50.903Z,15.55
2023-02-11T14:38:42.039Z,8.70
2023-02-11T14:41:32.077Z,7.60
2023-02-11T14:44:04.579Z,10.52
2023-02-11T14:46:33.927Z,10.75
2023-02-11T14:49:05.268Z,13.48
2023-02-11T14:51:38.665Z,17.33
2023-02-11T14:54:22.756Z,11.73
2023-02-11T14:57:09.031Z,20.27
2023-02-11T14:59:36.765Z,5.18
2023-02-11T15:02:19.519Z,12.50
2023-02-11T15:04:46.938Z,6.40
2023-02-11T15:07:15.531Z,14.13
2023-02-11T15:09:54.424Z,10.85
2023-02-11T15:12:27.987Z,11.90
2023-02-11T15:14:57.676Z,9.32
2023-02-11T15:17:30.446Z,12.20
2023-02-11T15:20:01.745Z,8.98
2023-02-11T15:22:37.484Z,8.15
2023-02-11T15:25:14.728Z,13.40
2023-02-11T15:27:45.048Z,11.43
2023-02-11T15:30:21.551Z,15.02
2023-02-11T15:33:00.772Z,12.65
2023-02-11T15:35:35.097Z,19.27
2023-02-11T15:38:04.899Z,17.58
2023-02-11T15:40:34.833Z,14.15
2023-02-11T15:43:10.604Z,9.73
2023-02-11T15:45:59.675Z,12.00
2023-02-11T15:48:45.538Z,19.55
2023-02-11T15:51:25.289Z,21.83
2023-02-11T15:54:24.249Z,9.48
2023-02-11T15:56:55.476Z,13.65
2023-02-11T15:59:28.902Z,15.18
2023-02-11T16:02:01.260Z,19.10
2023-02-11T16:04:28.952Z,11.55
2023-02-11T16:06:56.719Z,19.33
2023-02-11T16:09:36.197Z,19.00
2023-02-11T16:12:27.165Z,19.58
2023-02-11T16:14:56.516Z,27.77
2023-02-11T16:17:27.414Z,16.02
2023-02-11T16:19:56.032Z,17.42
2023-02-11T16:22:28.799Z,11.32
2023-02-11T16:24:59.392Z,14.13
2023-02-11T16:27:36.184Z,16.55
2023-02-11T16:30:05.474Z,20.17
2023-02-11T16:32:32.928Z,18.52
2023-02-11T16:35:01.349Z,17.15
2023-02-11T16:37:28.785Z,12.25
2023-02-11T16:39:58.125Z,9.38
2023-02-11T16:42:25.554Z,11.98
2023-02-11T16:44:53.233Z,12.98
2023-02-11T16:47:26.495Z,19.17
2023-02-11T16:49:55.415Z,20.90
2023-02-11T16:52:23.409Z,13.18
2023-02-11T16:54:51.168Z,20.80
2023-02-11T16:57:22.136Z,10.48
2023-02-11T16:59:50.010Z,14.05
2023-02-11T17:02:33.033Z,14.20
2023-02-11T17:05:03.679Z,5.30
2023-02-11T17:07:31.187Z,9.52
2023-02-11T17:09:58.589Z,14.32
2023-02-11T17:12:26.118Z,17.83
2023-02-11T17:14:54.149Z,20.63
2023-02-11T17:17:23.676Z,22.08
2023-02-11T17:19:51.370Z,13.13
2023-02-11T17:22:18.832Z,16.90
2023-02-11T17:24:46.163Z,25.67
2023-02-11T17:27:15.225Z,23.85
2023-02-11T17:29:43.917Z,19.10
2023-02-11T17:32:11.311Z,19.48
2023-02-11T17:34:38.784Z,16.33
2023-02-11T17:37:09.324Z,21.48
2023-02-11T17:39:38.198Z,19.63
2023-02-11T17:42:06.855Z,22.55
2023-02-11T17:44:34.292Z,19.10
2023-02-11T17:47:03.592Z,30.83
2023-02-11T17:49:31.148Z,18.48
2023-02-11T17:51:58.501Z,14.98
2023-02-11T17:54:26.032Z,16.92
2023-02-11T17:56:57.840Z,14.57
2023-02-11T17:59:26.048Z,18.98
2023-02-11T18:01:53.448Z,19.60
2023-02-11T18:04:20.946Z,22.67
2023-02-11T18:06:48.358Z,15.55
2023-02-11T18:09:15.694Z,12.55
2023-02-11T18:11:43.084Z,14.40
2023-02-11T18:14:10.748Z,18.58
2023-02-11T18:16:39.808Z,12.50
2023-02-11T18:19:07.744Z,17.83
2023-02-11T18:21:35.297Z,22.25
2023-02-11T18:24:06.456Z,24.95
2023-02-11T18:26:34.318Z,17.05
2023-02-11T18:29:02.113Z,15.38
2023-02-11T18:31:29.746Z,21.85
2023-02-11T18:33:57.860Z,18.67
2023-02-11T18:36:25.274Z,19.13
2023-02-11T18:38:54.014Z,18.50
2023-02-11T18:41:21.627Z,19.33
2023-02-11T18:43:49.129Z,12.18
2023-02-11T18:46:19.935Z,13.60
2023-02-11T18:48:47.563Z,15.88
2023-02-11T18:51:18.773Z,9.20
2023-02-11T18:53:46.803Z,14.20
2023-02-11T18:56:17.623Z,15.18
2023-02-11T18:58:44.969Z,9.27
2023-02-11T19:01:18.049Z,14.48
2023-02-11T19:03:46.014Z,17.77
2023-02-11T19:06:28.288Z,12.05
2023-02-11T19:09:00.754Z,22.02
2023-02-11T19:11:47.786Z,22.20
2023-02-11T19:14:23.217Z,17.83
2023-02-11T19:16:54.809Z,11.98
2023-02-11T19:19:24.046Z,19.65
2023-02-11T19:21:51.619Z,19.83
2023-02-11T19:24:19.883Z,20.45
2023-02-11T19:26:48.594Z,12.10
2023-02-11T19:29:16.032Z,13.43
2023-02-11T19:31:44.015Z,17.63
2023-02-11T19:34:14.143Z,14.02
2023-02-11T19:36:42.131Z,19.80
2023-02-11T19:39:10.094Z,17.92
2023-02-11T19:41:37.766Z,18.48
2023-02-11T19:44:06.421Z,18.60
2023-02-11T19:46:36.529Z,19.50
2023-02-11T19:49:05.276Z,20.48
2023-02-11T19:51:33.839Z,17.75
2023-02-11T19:54:01.331Z,17.90
2023-02-11T19:56:29.244Z,22.17
2023-02-11T19:58:57.080Z,21.88
2023-02-11T20:01:25.489Z,29.17
2023-02-11T20:03:54.714Z,24.00
2023-02-11T20:06:28.130Z,23.35
2023-02-11T20:09:01.118Z,18.25
2023-02-11T20:11:30.593Z,22.98
2023-02-11T20:13:59.403Z,26.10
2023-02-11T20:16:46.272Z,25.73
2023-02-11T20:19:20.273Z,35.97
2023-02-11T20:21:50.619Z,25.80
2023-02-11T20:24:19.028Z,21.00
2023-02-11T20:26:48.524Z,28.33
2023-02-11T20:29:17.535Z,18.75
2023-02-11T20:31:45.258Z,21.45
2023-02-11T20:34:12.880Z,22.83
2023-02-11T20:36:40.571Z,32.58
2023-02-11T20:39:09.925Z,34.05
2023-02-11T20:41:40.803Z,26.58
2023-02-11T20:44:10.353Z,27.23
2023-02-11T20:46:40.450Z,26.73
2023-02-11T20:49:10.416Z,28.83
2023-02-11T20:51:37.938Z,26.55
2023-02-11T20:54:06.336Z,24.10
2023-02-11T20:56:36.589Z,33.58
2023-02-11T20:59:04.666Z,28.27
2023-02-11T21:01:36.621Z,24.20
2023-02-11T21:04:11.246Z,28.73
2023-02-11T21:06:41.625Z,26.77
2023-02-11T21:09:12.116Z,30.00
2023-02-11T21:11:39.569Z,32.67
2023-02-11T21:14:07.242Z,27.30
2023-02-11T21:16:34.648Z,30.80
2023-02-11T21:19:02.940Z,27.30
2023-02-11T21:21:30.465Z,27.58
2023-02-11T21:23:58.669Z,28.65
2023-02-11T21:26:26.014Z,19.85
2023-02-11T21:28:55.017Z,27.17
2023-02-11T21:31:28.998Z,32.55
2023-02-11T21:33:57.204Z,29.83
2023-02-11T21:36:25.093Z,31.45
2023-02-11T21:38:52.613Z,29.08
2023-02-11T21:41:22.544Z,29.20
2023-02-11T21:43:51.084Z,31.90
2023-02-11T21:46:19.814Z,30.63
2023-02-11T21:48:47.627Z,25.13
2023-02-11T21:51:17.756Z,32.53
2023-02-11T21:53:45.655Z,28.77
2023-02-11T21:56:16.114Z,30.52
2023-02-11T21:58:44.895Z,30.73
2023-02-11T22:01:17.525Z,23.50
2023-02-11T22:03:45.897Z,30.25
2023-02-11T22:06:16.403Z,35.58
2023-02-11T22:08:43.911Z,25.88
2023-02-11T22:11:12.608Z,31.45
2023-02-11T22:13:40.835Z,33.70
2023-02-11T22:16:12.116Z,26.27
2023-02-11T22:18:39.533Z,27.92
2023-02-11T22:21:13.049Z,25.50
2023-02-11T22:23:40.433Z,27.65
2023-02-11T22:26:10.676Z,31.10
2023-02-11T22:28:40.503Z,29.42
2023-02-11T22:31:13.371Z,25.00
2023-02-11T22:33:41.021Z,34.05
2023-02-11T22:36:15.641Z,28.50
2023-02-11T22:38:43.008Z,33.63
2023-02-11T22:41:12.139Z,34.25
2023-02-11T22:43:39.902Z,31.70
2023-02-11T22:46:07.760Z,32.90
2023-02-11T22:48:35.959Z,26.73
2023-02-11T22:51:07.348Z,40.47
2023-02-11T22:53:35.161Z,30.63
2023-02-11T22:56:05.498Z,38.85
2023-02-11T22:58:33.656Z,38.40
2023-02-11T23:01:01.388Z,36.33
2023-02-11T23:03:29.271Z,42.90
2023-02-11T23:05:58.871Z,36.40
2023-02-11T23:08:27.792Z,37.38
2023-02-11T23:10:55.063Z,35.25
2023-02-11T23:13:22.357Z,34.58
2023-02-11T23:15:49.617Z,29.90
2023-02-11T23:18:16.972Z,34.03
2023-02-11T23:20:44.374Z,35.53
2023-02-11T23:23:11.866Z,43.83
2023-02-11T23:25:43.781Z,41.90
2023-02-11T23:28:12.317Z,43.38
2023-02-11T23:30:41.270Z,49.40
2023-02-11T23:33:08.711Z,38.35
2023-02-11T23:35:36.420Z,39.50
2023-02-11T23:38:03.745Z,46.42
2023-02-11T23:40:31.031Z,35.67
2023-02-11T23:42:58.264Z,36.05
2023-02-11T23:45:25.783Z,36.78
2023-02-11T23:47:53.148Z,42.90
2023-02-11T23:50:20.479Z,39.53
2023-02-11T23:52:47.915Z,36.03
2023-02-11T23:55:15.344Z,42.45
2023-02-11T23:57:42.645Z,52.28
